createdAt,value
2019-01-03T00:00:54.938Z,2.90
2019-01-03T00:03:27.384Z,2.60
2019-01-03T00:06:11.327Z,2.40
2019-01-03T00:08:40.410Z,2.50
2019-01-03T00:11:15.417Z,2.90
2019-01-03T00:19:11.369Z,2.90
2019-01-03T00:21:42.326Z,2.20
2019-01-03T00:24:17.060Z,2.90
2019-01-03T00:26:53.871Z,2.62
2019-01-03T00:29:31.402Z,2.70
2019-01-03T00:32:00.479Z,2.50
2019-01-03T00:37:09.003Z,2.47
2019-01-03T00:39:40.942Z,2.10
2019-01-03T00:42:11.751Z,2.55
2019-01-03T00:53:09.419Z,2.70
2019-01-03T00:56:00.876Z,2.70
2019-01-03T00:58:35.304Z,2.90
2019-01-03T01:01:10.783Z,1.80
2019-01-03T01:03:48.421Z,2.70
2019-01-03T01:09:07.524Z,2.53
2019-01-03T01:35:24.635Z,3.10
2019-01-03T01:40:37.786Z,2.67
2019-01-03T01:43:18.696Z,2.78
2019-01-03T01:48:34.072Z,2.50
2019-01-03T01:51:06.437Z,2.70
2019-01-03T01:56:18.872Z,3.00
2019-01-03T02:04:44.071Z,2.72
2019-01-03T02:15:26.507Z,2.65
2019-01-03T02:34:25.965Z,2.60
2019-01-03T02:36:57.556Z,2.70
2019-01-03T02:39:27.461Z,2.97
2019-01-03T02:41:56.747Z,2.55
2019-01-03T02:50:21.461Z,2.50
2019-01-03T02:53:05.150Z,2.10
2019-01-03T02:55:34.342Z,2.90
2019-01-03T02:58:04.309Z,2.13
2019-01-03T03:03:19.259Z,2.80
2019-01-03T03:14:20.120Z,2.70
2019-01-03T03:19:47.652Z,2.90
2019-01-03T03:27:59.590Z,2.05
2019-01-03T03:30:29.555Z,3.50
2019-01-03T03:33:07.092Z,2.92
2019-01-03T03:35:37.008Z,2.50
2019-01-03T03:41:03.491Z,2.70
2019-01-03T03:54:43.498Z,2.75
2019-01-03T03:57:18.323Z,2.90
2019-01-03T04:02:46.433Z,2.50
2019-01-03T04:05:32.370Z,2.20
2019-01-03T04:11:04.506Z,2.20
2019-01-03T04:19:05.365Z,3.08
2019-01-03T04:21:35.314Z,2.30
2019-01-03T04:27:05.275Z,2.50
2019-01-03T04:29:37.214Z,2.37
2019-01-03T04:32:11.760Z,2.40
2019-01-03T04:34:40.802Z,2.20
2019-01-03T04:40:06.862Z,2.30
2019-01-03T04:45:21.818Z,2.40
2019-01-03T04:53:13.377Z,2.15
2019-01-03T04:58:30.988Z,2.90
2019-01-03T05:07:19.912Z,2.90
2019-01-03T05:12:35.240Z,2.65
2019-01-03T05:15:09.711Z,2.30
2019-01-03T05:17:44.339Z,2.72
2019-01-03T05:20:19.823Z,2.80
2019-01-03T05:22:50.827Z,2.43
2019-01-03T05:25:20.665Z,2.90
2019-01-03T05:27:49.726Z,2.40
2019-01-03T05:35:59.766Z,3.10
2019-01-03T05:38:34.303Z,2.70
2019-01-03T05:41:22.163Z,2.80
2019-01-03T05:44:05.121Z,2.70
2019-01-03T05:46:34.513Z,2.70
2019-01-03T05:54:58.096Z,2.30
2019-01-03T06:00:13.779Z,3.25
2019-01-03T06:02:44.519Z,2.50
2019-01-03T06:05:16.021Z,2.63
2019-01-03T06:07:45.080Z,2.90
2019-01-03T06:10:16.135Z,2.65
2019-01-03T06:12:47.011Z,2.55
2019-01-03T06:15:22.111Z,2.90
2019-01-03T06:26:33.389Z,2.50
2019-01-03T06:34:49.038Z,2.60
2019-01-03T06:39:56.489Z,2.50
2019-01-03T06:48:21.007Z,3.30
2019-01-03T06:53:37.000Z,2.80
2019-01-03T06:56:09.936Z,2.60
2019-01-03T06:58:52.586Z,2.87
2019-01-03T07:01:27.553Z,2.20
2019-01-03T07:04:02.144Z,2.93
2019-01-03T07:09:22.491Z,3.35
2019-01-03T07:11:57.036Z,2.50
2019-01-03T07:14:38.959Z,3.00
2019-01-03T07:28:23.315Z,2.90
2019-01-03T07:33:34.054Z,2.60
2019-01-03T07:39:02.777Z,3.60
2019-01-03T07:44:17.567Z,2.62
2019-01-03T07:49:22.355Z,3.08
2019-01-03T07:51:56.960Z,2.73
2019-01-03T07:54:25.991Z,3.20
2019-01-03T07:56:55.043Z,3.00
2019-01-03T07:59:37.967Z,3.20
2019-01-03T08:02:09.281Z,3.30
2019-01-03T08:07:35.667Z,2.80
2019-01-03T08:10:21.419Z,3.00
2019-01-03T08:18:07.602Z,3.80
2019-01-03T08:23:42.632Z,3.87
2019-01-03T08:26:27.956Z,3.07
2019-01-03T08:29:03.155Z,3.97
2019-01-03T08:34:10.097Z,3.60
2019-01-03T08:36:45.427Z,4.00
2019-01-03T08:39:20.050Z,3.55
2019-01-03T08:41:54.756Z,4.30
2019-01-03T08:47:33.131Z,4.00
2019-01-03T08:52:42.116Z,3.90
2019-01-03T09:00:47.569Z,4.35
2019-01-03T09:03:23.076Z,3.50
2019-01-03T09:05:54.055Z,3.95
2019-01-03T09:08:28.708Z,3.37
2019-01-03T09:13:50.391Z,3.92
2019-01-03T09:16:22.254Z,3.87
2019-01-03T09:21:30.039Z,3.90
2019-01-03T09:26:54.237Z,3.03
2019-01-03T09:32:13.094Z,3.50
2019-01-03T09:37:32.899Z,3.90
2019-01-03T09:43:10.028Z,3.70
2019-01-03T09:45:44.315Z,3.37
2019-01-03T09:48:09.332Z,3.53
2019-01-03T09:50:38.376Z,3.73
2019-01-03T09:53:08.327Z,3.72
2019-01-03T09:55:37.388Z,3.73
2019-01-03T09:58:06.683Z,3.83
2019-01-03T10:00:36.445Z,3.57
2019-01-03T10:03:07.776Z,4.32
2019-01-03T10:05:37.996Z,4.10
2019-01-03T10:08:07.102Z,3.43
2019-01-03T10:10:36.224Z,3.85
2019-01-03T10:13:05.329Z,3.90
2019-01-03T10:18:11.921Z,3.77
2019-01-03T10:20:40.975Z,3.33
2019-01-03T10:26:43.537Z,3.60
2019-01-03T10:29:12.627Z,3.55
2019-01-03T10:31:41.771Z,3.70
2019-01-03T10:34:10.841Z,3.55
2019-01-03T10:39:15.142Z,3.33
2019-01-03T10:41:44.252Z,3.80
2019-01-03T10:44:13.685Z,3.60
2019-01-03T10:46:43.045Z,3.40
2019-01-03T10:49:12.116Z,3.93
2019-01-03T10:51:41.230Z,2.97
2019-01-03T10:54:11.383Z,3.85
2019-01-03T10:56:40.418Z,4.00
2019-01-03T10:59:09.481Z,2.90
2019-01-03T11:01:39.045Z,3.67
2019-01-03T11:04:09.684Z,3.53
2019-01-03T11:06:38.780Z,3.77
2019-01-03T11:09:07.903Z,4.20
2019-01-03T11:11:38.171Z,5.57
2019-01-03T11:14:07.192Z,4.60
2019-01-03T11:16:48.999Z,3.60
2019-01-03T11:21:54.858Z,3.97
2019-01-03T11:24:23.911Z,3.80
2019-01-03T11:26:53.047Z,3.10
2019-01-03T11:31:57.635Z,3.10
2019-01-03T11:37:02.419Z,3.45
2019-01-03T11:39:32.239Z,2.80
2019-01-03T11:42:01.564Z,2.70
2019-01-03T11:44:30.612Z,2.63
2019-01-03T11:46:59.716Z,3.10
2019-01-03T11:49:28.776Z,2.40
2019-01-03T11:51:57.865Z,2.70
2019-01-03T11:59:55.419Z,3.20
2019-01-03T12:02:29.659Z,2.30
2019-01-03T12:04:58.852Z,2.70
2019-01-03T12:07:27.900Z,2.70
2019-01-03T12:09:56.948Z,2.30
2019-01-03T12:12:26.026Z,2.53
2019-01-03T12:14:55.070Z,2.60
2019-01-03T12:17:24.248Z,3.00
2019-01-03T12:19:53.318Z,2.50
2019-01-03T12:22:22.379Z,2.70
2019-01-03T12:24:51.442Z,2.63
2019-01-03T12:27:20.515Z,3.60
2019-01-03T12:29:49.580Z,2.40
2019-01-03T12:32:18.637Z,2.77
2019-01-03T12:34:47.750Z,3.33
2019-01-03T12:37:16.785Z,2.83
2019-01-03T12:39:45.858Z,3.00
2019-01-03T12:42:14.934Z,3.20
2019-01-03T12:44:44.006Z,2.72
2019-01-03T12:47:13.165Z,4.30
2019-01-03T12:49:45.813Z,3.60
2019-01-03T12:52:20.743Z,3.10
2019-01-03T12:54:49.783Z,3.30
2019-01-03T12:57:18.851Z,2.80
2019-01-03T12:59:48.035Z,2.93
2019-01-03T13:02:17.215Z,3.20
2019-01-03T13:04:46.338Z,3.00
2019-01-03T13:07:15.559Z,3.10
2019-01-03T13:09:44.721Z,2.40
2019-01-03T13:12:13.764Z,3.40
2019-01-03T13:14:42.879Z,2.67
2019-01-03T13:17:11.977Z,2.70
2019-01-03T13:19:41.029Z,2.43
2019-01-03T13:22:10.656Z,3.27
2019-01-03T13:24:39.826Z,2.90
2019-01-03T13:27:08.872Z,2.73
2019-01-03T13:29:37.926Z,2.75
2019-01-03T13:32:06.971Z,3.37
2019-01-03T13:34:36.067Z,3.17
2019-01-03T13:37:05.115Z,3.27
2019-01-03T13:39:34.167Z,2.60
2019-01-03T13:42:09.028Z,2.33
2019-01-03T13:44:38.089Z,2.73
2019-01-03T13:47:07.152Z,2.90
2019-01-03T13:49:36.186Z,2.83
2019-01-03T13:52:06.251Z,3.20
2019-01-03T13:54:35.329Z,3.27
2019-01-03T13:57:04.381Z,2.47
2019-01-03T13:59:33.433Z,3.60
2019-01-03T14:02:02.641Z,2.97
2019-01-03T14:04:31.672Z,2.67
2019-01-03T14:07:00.743Z,3.40
2019-01-03T14:09:29.803Z,3.00
2019-01-03T14:11:59.044Z,3.20
2019-01-03T14:14:28.715Z,3.05
2019-01-03T14:16:57.800Z,3.28
2019-01-03T14:19:26.861Z,3.37
2019-01-03T14:21:55.920Z,3.00
2019-01-03T14:24:26.032Z,2.80
2019-01-03T14:26:55.138Z,2.90
2019-01-03T14:29:24.216Z,3.07
2019-01-03T14:31:53.289Z,3.17
2019-01-03T14:34:22.392Z,2.63
2019-01-03T14:36:51.469Z,4.10
2019-01-03T14:39:20.545Z,3.43
2019-01-03T14:41:49.608Z,3.70
2019-01-03T14:44:18.681Z,3.33
2019-01-03T14:46:47.748Z,4.00
2019-01-03T14:49:16.810Z,3.10
2019-01-03T14:51:45.875Z,4.30
2019-01-03T14:54:18.593Z,3.17
2019-01-03T14:56:49.640Z,3.70
2019-01-03T14:59:18.698Z,4.15
2019-01-03T15:01:47.805Z,3.97
2019-01-03T15:04:16.875Z,3.58
2019-01-03T15:06:45.953Z,3.90
2019-01-03T15:09:15.030Z,2.87
2019-01-03T15:11:55.407Z,3.20
2019-01-03T15:14:25.586Z,3.10
2019-01-03T15:16:54.657Z,3.50
2019-01-03T15:21:59.395Z,3.12
2019-01-03T15:24:28.467Z,3.50
2019-01-03T15:26:57.519Z,2.30
2019-01-03T15:29:26.588Z,3.58
2019-01-03T15:31:55.662Z,3.42
2019-01-03T15:34:24.749Z,3.03
2019-01-03T15:36:53.795Z,3.70
2019-01-03T15:39:22.865Z,3.22
2019-01-03T15:41:51.943Z,3.73
2019-01-03T15:44:21.003Z,3.03
2019-01-03T15:46:50.114Z,2.93
2019-01-03T15:49:19.228Z,3.28
2019-01-03T15:51:48.311Z,3.50
2019-01-03T15:54:17.448Z,3.10
2019-01-03T15:56:46.574Z,3.57
2019-01-03T15:59:22.831Z,3.55
2019-01-03T16:01:51.949Z,3.23
2019-01-03T16:04:21.939Z,3.40
2019-01-03T16:06:51.008Z,3.13
2019-01-03T16:11:58.790Z,3.53
2019-01-03T16:14:28.879Z,2.73
2019-01-03T16:16:58.911Z,3.50
2019-01-03T16:19:27.963Z,3.83
2019-01-03T16:21:57.058Z,3.10
2019-01-03T16:24:26.131Z,3.40
2019-01-03T16:26:55.259Z,11.53
2019-01-03T16:29:24.494Z,7.45
2019-01-03T16:31:54.608Z,4.53
2019-01-03T16:34:23.663Z,8.05
2019-01-03T16:36:54.679Z,19.33
2019-01-03T16:39:23.775Z,22.70
2019-01-03T16:41:53.031Z,56.90
2019-01-03T16:44:22.093Z,29.47
2019-01-03T16:49:30.373Z,27.13
2019-01-03T16:51:59.435Z,6.33
2019-01-03T16:54:28.497Z,5.95
2019-01-03T16:56:57.590Z,10.50
2019-01-03T16:59:26.606Z,5.13
2019-01-03T17:01:55.684Z,3.90
2019-01-03T17:04:25.005Z,3.25
2019-01-03T17:06:54.048Z,3.20
2019-01-03T17:09:23.109Z,4.53
2019-01-03T17:11:52.179Z,3.97
2019-01-03T17:14:21.302Z,3.20
2019-01-03T17:16:50.346Z,3.40
2019-01-03T17:19:19.480Z,5.50
2019-01-03T17:21:48.519Z,4.47
2019-01-03T17:24:17.646Z,4.30
2019-01-03T17:26:46.689Z,2.90
2019-01-03T17:29:15.804Z,3.58
2019-01-03T17:31:44.851Z,4.80
2019-01-03T17:34:13.968Z,3.60
2019-01-03T17:36:43.020Z,4.75
2019-01-03T17:39:12.124Z,4.55
2019-01-03T17:41:41.236Z,4.57
2019-01-03T17:44:10.310Z,4.70
2019-01-03T17:46:40.315Z,4.00
2019-01-03T17:49:09.374Z,4.90
2019-01-03T17:51:39.355Z,5.65
2019-01-03T17:56:46.699Z,5.80
2019-01-03T17:59:15.770Z,5.32
2019-01-03T18:01:44.823Z,4.90
2019-01-03T18:04:14.955Z,5.30
2019-01-03T18:06:44.006Z,5.62
2019-01-03T18:09:13.084Z,3.80
2019-01-03T18:11:43.194Z,5.50
2019-01-03T18:14:13.255Z,5.68
2019-01-03T18:16:43.242Z,8.47
2019-01-03T18:19:12.356Z,17.45
2019-01-03T18:21:41.429Z,10.73
2019-01-03T18:24:11.611Z,20.70
2019-01-03T18:26:40.755Z,24.20
2019-01-03T18:29:09.825Z,18.30
2019-01-03T18:31:38.901Z,8.40
2019-01-03T18:34:08.019Z,10.85
2019-01-03T18:36:38.119Z,8.33
2019-01-03T18:39:07.173Z,7.70
2019-01-03T18:41:36.366Z,5.80
2019-01-03T18:44:05.438Z,6.50
2019-01-03T18:46:34.533Z,6.40
2019-01-03T18:49:04.698Z,4.30
2019-01-03T18:51:37.457Z,5.00
2019-01-03T18:54:06.527Z,5.20
2019-01-03T18:56:35.614Z,5.27
2019-01-03T18:59:04.726Z,3.93
2019-01-03T19:01:33.788Z,4.60
2019-01-03T19:04:05.749Z,4.72
2019-01-03T19:06:34.807Z,3.70
2019-01-03T19:09:04.767Z,4.50
2019-01-03T19:11:33.838Z,5.18
2019-01-03T19:14:02.907Z,4.40
2019-01-03T19:16:32.060Z,4.90
2019-01-03T19:19:02.091Z,3.83
2019-01-03T19:21:31.160Z,4.60
2019-01-03T19:24:02.876Z,5.30
2019-01-03T19:26:32.008Z,4.80
2019-01-03T19:29:01.052Z,4.20
2019-01-03T19:31:30.124Z,4.55
2019-01-03T19:33:59.181Z,5.27
2019-01-03T19:36:28.267Z,4.82
2019-01-03T19:38:57.393Z,3.80
2019-01-03T19:41:26.636Z,5.50
2019-01-03T19:43:56.658Z,5.90
2019-01-03T19:46:27.666Z,5.60
2019-01-03T19:48:56.782Z,5.18
2019-01-03T19:51:25.843Z,5.68
2019-01-03T19:53:55.115Z,4.93
2019-01-03T19:56:24.216Z,5.40
2019-01-03T19:58:54.222Z,5.70
2019-01-03T20:01:23.284Z,5.20
2019-01-03T20:03:52.354Z,5.62
2019-01-03T20:06:21.740Z,5.00
2019-01-03T20:08:50.889Z,5.00
2019-01-03T20:11:19.951Z,5.72
2019-01-03T20:13:49.008Z,5.75
2019-01-03T20:16:18.100Z,4.20
2019-01-03T20:18:51.032Z,5.10
2019-01-03T20:21:20.102Z,4.30
2019-01-03T20:23:51.147Z,5.60
2019-01-03T20:26:21.934Z,6.00
2019-01-03T20:31:30.050Z,6.43
2019-01-03T20:33:59.555Z,4.80
2019-01-03T20:36:30.543Z,6.00
2019-01-03T20:41:56.232Z,6.10
2019-01-03T20:44:25.302Z,6.07
2019-01-03T20:46:55.317Z,6.50
2019-01-03T20:49:24.384Z,6.70
2019-01-03T20:51:57.167Z,7.03
2019-01-03T20:54:26.473Z,7.25
2019-01-03T20:56:55.527Z,6.70
2019-01-03T20:59:24.594Z,6.30
2019-01-03T21:01:53.667Z,7.40
2019-01-03T21:04:22.784Z,7.75
2019-01-03T21:06:53.785Z,6.30
2019-01-03T21:09:23.112Z,7.97
2019-01-03T21:12:02.051Z,7.60
2019-01-03T21:14:32.553Z,8.60
2019-01-03T21:17:02.617Z,8.63
2019-01-03T21:19:31.749Z,6.60
2019-01-03T21:22:00.787Z,8.27
2019-01-03T21:24:29.899Z,6.83
2019-01-03T21:26:58.958Z,8.43
2019-01-03T21:29:37.871Z,7.90
2019-01-03T21:32:07.987Z,7.70
2019-01-03T21:34:37.059Z,8.10
2019-01-03T21:37:06.135Z,6.30
2019-01-03T21:39:35.220Z,8.52
2019-01-03T21:42:04.294Z,7.17
2019-01-03T21:47:18.903Z,9.07
2019-01-03T21:49:52.193Z,9.93
2019-01-03T21:52:21.263Z,7.60
2019-01-03T21:54:50.356Z,8.85
2019-01-03T21:57:19.464Z,8.00
2019-01-03T21:59:48.553Z,9.48
2019-01-03T22:02:18.530Z,8.27
2019-01-03T22:04:48.680Z,8.82
2019-01-03T22:07:19.647Z,8.98
2019-01-03T22:09:49.680Z,8.50
2019-01-03T22:12:18.763Z,9.10
2019-01-03T22:14:47.929Z,8.80
2019-01-03T22:17:17.027Z,9.90
2019-01-03T22:19:46.094Z,8.60
2019-01-03T22:22:15.156Z,10.75
2019-01-03T22:24:44.227Z,10.40
2019-01-03T22:27:13.315Z,11.32
2019-01-03T22:29:50.127Z,9.37
2019-01-03T22:32:19.189Z,11.23
2019-01-03T22:37:26.983Z,11.75
2019-01-03T22:42:33.827Z,11.30
2019-01-03T22:45:02.889Z,8.40
2019-01-03T22:47:31.937Z,9.00
2019-01-03T22:50:01.018Z,11.45
2019-01-03T22:52:30.067Z,9.80
2019-01-03T22:54:59.151Z,11.50
2019-01-03T22:57:28.244Z,9.93
2019-01-03T22:59:57.330Z,11.57
2019-01-03T23:02:27.449Z,10.30
2019-01-03T23:04:56.555Z,11.40
2019-01-03T23:07:25.619Z,9.23
2019-01-03T23:09:54.683Z,11.27
2019-01-03T23:12:23.778Z,10.20
2019-01-03T23:14:59.103Z,12.32
2019-01-03T23:20:03.879Z,12.82
2019-01-03T23:22:32.939Z,13.57
2019-01-03T23:25:02.008Z,11.27
2019-01-03T23:27:31.084Z,12.70
2019-01-03T23:30:00.178Z,11.70
2019-01-03T23:32:30.180Z,12.65
2019-01-03T23:34:59.312Z,10.83
2019-01-03T23:37:28.387Z,11.93
2019-01-03T23:40:00.531Z,11.88
2019-01-03T23:42:29.924Z,11.60
2019-01-03T23:45:40.914Z,12.75
2019-01-03T23:48:09.999Z,9.70
2019-01-03T23:50:39.065Z,12.27
2019-01-03T23:55:45.336Z,12.30
2019-01-03T23:58:14.437Z,11.40
